Time;durP1;ratioP1;P1;durP2;ratioP2;P2;SDS_P1;SDS_P2;PMS_P1;PMS_P2;Temp;Humidity;BMP_temperature;BMP_pressure;BME280_temperature;BME280_humidity;BME280_pressure;Samples;Min_cycle;Max_cycle;Signal;HPM_P1;HPM_P2
2022/11/22 00:00:00;;;;;;;1.40;1.30;;;;;;;11.41;54.61;98757.13;5053034;28;20489;-79
2022/11/22 00:02:26;;;;;;;1.50;1.40;;;;;;;11.84;54.22;98836.06;5071731;28;20039;-79
2022/11/22 00:04:51;;;;;;;2.20;2.05;;;;;;;11.82;54.62;98843.41;5071220;28;20062;-79
2022/11/22 00:07:16;;;;;;;2.10;1.65;;;;;;;11.31;53.83;98767.28;5071115;28;20021;-79
2022/11/22 00:09:42;;;;;;;1.70;1.60;;;;;;;11.22;53.96;98763.19;5070852;28;20060;-80
2022/11/22 00:12:07;;;;;;;1.40;1.30;;;;;;;10.89;53.84;98720.84;5070960;28;20505;-79
2022/11/22 00:14:33;;;;;;;1.17;1.13;;;;;;;11.11;53.67;98783.06;5070974;28;20055;-79
2022/11/22 00:16:58;;;;;;;1.50;1.40;;;;;;;10.83;54.28;98746.22;5070944;28;20032;-79
2022/11/22 00:19:24;;;;;;;1.80;1.17;;;;;;;10.75;54.18;98725.28;5053459;28;20249;-79
2022/11/22 00:21:49;;;;;;;1.50;1.40;;;;;;;11.44;54.28;98858.97;5070986;28;20165;-79
2022/11/22 00:24:14;;;;;;;1.48;1.38;;;;;;;10.74;53.77;98726.28;5070992;28;20037;-79
2022/11/22 00:26:40;;;;;;;1.52;1.42;;;;;;;10.50;54.54;98725.00;5070976;28;20071;-79
2022/11/22 00:29:05;;;;;;;1.60;1.50;;;;;;;10.89;54.22;98767.56;5070952;28;20016;-80
2022/11/22 00:31:31;;;;;;;1.50;1.42;;;;;;;10.62;55.01;98774.59;5071326;28;20444;-80
2022/11/22 00:33:56;;;;;;;1.92;1.83;;;;;;;10.64;54.18;98812.97;5070929;28;20025;-79
2022/11/22 00:36:22;;;;;;;1.60;1.50;;;;;;;10.66;53.85;98771.34;5052961;28;20033;-80
2022/11/22 00:38:48;;;;;;;1.40;1.30;;;;;;;11.03;53.89;98838.72;5070828;28;20066;-80
2022/11/22 00:41:13;;;;;;;1.85;1.50;;;;;;;10.99;54.58;98841.94;5054739;28;20029;-80
2022/11/22 00:43:39;;;;;;;1.98;1.88;;;;;;;11.24;54.01;98895.94;5074760;28;20413;-80
2022/11/22 00:46:04;;;;;;;1.92;1.83;;;;;;;9.39;54.32;98593.34;5074706;28;20021;-80
2022/11/22 00:48:29;;;;;;;3.13;2.30;;;;;;;10.55;55.32;98785.13;5074599;28;20012;-80
2022/11/22 00:50:55;;;;;;;3.13;1.95;;;;;;;10.71;55.53;98819.09;5074274;28;20493;-80
2022/11/22 00:53:21;;;;;;;2.53;2.20;;;;;;;10.65;55.55;98819.88;5074269;28;20028;-81
2022/11/22 00:55:47;;;;;;;1.83;1.70;;;;;;;10.36;54.81;98812.19;5074490;28;20025;-80
2022/11/22 00:58:12;;;;;;;2.00;1.90;;;;;;;11.04;54.70;98895.81;5074391;28;20028;-80
2022/11/22 01:00:38;;;;;;;1.85;1.75;;;;;;;11.08;54.68;98883.03;5074448;28;20160;-79
2022/11/22 01:03:04;;;;;;;2.08;1.88;;;;;;;10.87;54.79;98856.75;5074433;28;20104;-80
2022/11/22 01:05:29;;;;;;;2.00;1.90;;;;;;;10.33;54.73;98762.44;5056389;28;20031;-79
2022/11/22 01:07:54;;;;;;;2.10;2.00;;;;;;;11.11;55.29;98875.53;5073948;28;20041;-80
2022/11/22 01:10:20;;;;;;;2.00;1.90;;;;;;;10.53;54.56;98779.22;5056174;28;20028;-80
2022/11/22 01:12:45;;;;;;;2.50;2.30;;;;;;;10.57;54.70;98798.13;5073994;28;20508;-79
2022/11/22 01:15:11;;;;;;;2.25;2.05;;;;;;;10.77;55.11;98860.56;5055915;28;20162;-79
2022/11/22 01:17:36;;;;;;;2.85;2.20;;;;;;;11.08;55.38;98893.59;5073993;28;20040;-79
2022/11/22 01:20:02;;;;;;;2.58;2.38;;;;;;;11.08;55.44;98893.59;5073976;28;20032;-79
2022/11/22 01:22:28;;;;;;;2.20;2.10;;;;;;;11.14;55.33;98937.72;5073987;28;20058;-79
2022/11/22 01:24:53;;;;;;;2.30;2.05;;;;;;;10.41;55.04;98839.66;5073965;28;20025;-79
2022/11/22 01:27:18;;;;;;;2.40;2.20;;;;;;;10.42;54.68;98845.75;5073841;28;20115;-79
2022/11/22 01:29:44;;;;;;;2.33;2.15;;;;;;;10.99;54.65;98929.13;5073998;28;20020;-79
2022/11/22 01:32:09;;;;;;;2.08;1.88;;;;;;;11.08;54.47;98947.25;5073849;28;20029;-79
2022/11/22 01:34:35;;;;;;;2.55;2.35;;;;;;;10.47;54.07;98832.78;5073591;28;20029;-79
2022/11/22 01:37:01;;;;;;;2.05;1.85;;;;;;;10.38;54.01;98840.00;5073647;28;20029;-79
2022/11/22 01:39:26;;;;;;;2.40;2.20;;;;;;;11.05;53.41;98936.25;5073589;28;20031;-79
2022/11/22 01:41:51;;;;;;;1.88;1.77;;;;;;;10.70;54.30;98878.19;5055559;28;20081;-79
2022/11/22 01:44:18;;;;;;;2.00;1.90;;;;;;;11.09;54.46;98946.25;5055565;28;20034;-79
2022/11/22 01:46:44;;;;;;;2.50;2.20;;;;;;;11.13;54.22;98951.94;5073476;28;20028;-79
2022/11/22 01:49:36;;;;;;;2.40;2.20;;;;;;;11.07;53.85;98961.47;5073281;28;20035;-79
2022/11/22 01:52:06;;;;;;;3.17;2.40;;;;;;;11.16;54.51;98959.50;5072543;28;20041;-79
2022/11/22 01:54:36;;;;;;;2.67;2.47;;;;;;;11.15;54.36;98947.31;5055474;28;20103;-79
2022/11/22 01:57:05;;;;;;;3.13;2.83;;;;;;;10.65;54.31;98872.69;5073338;28;20028;-79
2022/11/22 01:59:34;;;;;;;2.83;2.33;;;;;;;11.17;54.64;98955.06;5073351;28;20029;-79
2022/11/22 02:02:00;;;;;;;2.42;2.33;;;;;;;11.14;54.31;98951.75;5074748;28;20086;-80
2022/11/22 02:04:28;;;;;;;2.30;2.10;;;;;;;10.74;53.53;98908.47;5100645;28;20020;-79
2022/11/22 02:07:24;;;;;;;2.60;2.40;;;;;;;10.48;53.63;98887.19;5085446;28;20064;-79
2022/11/22 02:09:51;;;;;;;1.98;1.88;;;;;;;10.87;53.63;98963.19;5073283;28;20044;-80
2022/11/22 02:12:22;;;;;;;2.33;2.20;;;;;;;10.73;53.94;98943.81;5072883;28;20086;-79
2022/11/22 02:14:48;;;;;;;3.22;2.60;;;;;;;11.01;53.66;98999.22;5072937;28;20028;-79
2022/11/22 02:17:13;;;;;;;2.88;2.67;;;;;;;11.09;53.87;98999.09;5072768;28;20028;-79
2022/11/22 02:19:44;;;;;;;3.05;2.78;;;;;;;11.13;53.61;98986.28;5072870;28;20033;-79
2022/11/22 02:22:31;;;;;;;3.05;2.83;;;;;;;11.07;53.63;98977.31;5072830;28;20028;-79
2022/11/22 02:25:07;;;;;;;2.95;2.75;;;;;;;10.79;54.56;98948.31;5086511;28;20032;-79
2022/11/22 02:27:33;;;;;;;2.97;2.65;;;;;;;10.11;55.03;98832.91;5085758;28;20089;-79
2022/11/22 02:29:58;;;;;;;3.10;2.90;;;;;;;10.96;55.34;98948.00;5073360;28;20534;-80
2022/11/22 02:32:23;;;;;;;3.17;2.55;;;;;;;9.44;54.26;98704.22;5073817;28;20036;-79
2022/11/22 02:34:50;;;;;;;3.13;2.83;;;;;;;10.43;54.57;98857.94;5072642;28;20031;-79
2022/11/22 02:37:22;;;;;;;3.10;2.80;;;;;;;10.58;54.76;98874.47;5072518;28;20033;-79
2022/11/22 02:39:54;;;;;;;3.60;3.30;;;;;;;10.45;54.22;98861.19;5054619;28;20024;-79
2022/11/22 02:42:20;;;;;;;;;;;;;;;10.91;55.13;98967.06;5072897;28;20033;-79
2022/11/22 02:44:46;;;;;;;3.22;2.95;;;;;;;10.23;55.09;98847.22;5072401;28;19908;-80
2022/11/22 02:47:11;;;;;;;3.25;2.90;;;;;;;10.52;55.46;98914.84;5072615;28;20029;-79
2022/11/22 02:49:37;;;;;;;3.60;3.30;;;;;;;10.70;55.27;98923.06;5054260;28;20032;-80
2022/11/22 02:52:02;;;;;;;3.58;3.22;;;;;;;10.56;54.89;98900.25;5072078;28;20139;-80
2022/11/22 02:54:27;;;;;;;3.97;3.67;;;;;;;10.55;54.83;98903.06;5072230;28;20092;-79
2022/11/22 02:56:53;;;;;;;3.47;3.25;;;;;;;10.39;54.78;98867.22;5072060;28;20027;-79
2022/11/22 02:59:18;;;;;;;3.50;3.20;;;;;;;10.93;54.77;98969.53;5072277;28;20039;-79
2022/11/22 03:01:46;;;;;;;3.58;3.28;;;;;;;10.58;54.75;98924.63;5054155;28;20024;-79
2022/11/22 03:04:23;;;;;;;3.58;3.25;;;;;;;10.63;55.03;98950.44;5071716;28;20032;-80
2022/11/22 03:06:50;;;;;;;3.25;3.03;;;;;;;10.81;54.95;98969.25;5072027;28;20042;-80
2022/11/22 03:09:15;;;;;;;3.50;3.20;;;;;;;10.59;54.94;98926.25;5071776;28;20044;-79
2022/11/22 03:11:40;;;;;;;4.10;3.70;;;;;;;10.94;54.71;98985.16;5071930;28;20077;-80
2022/11/22 03:14:06;;;;;;;4.03;3.45;;;;;;;10.52;55.10;98925.38;5071735;28;20099;-79
2022/11/22 03:16:31;;;;;;;3.75;3.45;;;;;;;10.53;55.12;98936.75;5071540;28;20024;-79
2022/11/22 03:18:56;;;;;;;2.80;2.60;;;;;;;10.49;54.30;98946.91;5071678;28;20477;-79
2022/11/22 03:21:22;;;;;;;3.30;3.10;;;;;;;10.75;54.67;98973.47;5071868;28;20028;-80
2022/11/22 03:23:47;;;;;;;3.78;3.28;;;;;;;10.34;54.16;98917.94;5071787;28;20481;-79
2022/11/22 03:26:13;;;;;;;3.53;3.22;;;;;;;10.37;54.24;98919.38;5053735;28;20051;-79
2022/11/22 03:28:38;;;;;;;3.38;3.08;;;;;;;10.66;54.38;98987.00;5053713;28;20565;-79
2022/11/22 03:31:05;;;;;;;3.20;2.90;;;;;;;10.86;54.64;99006.47;5053597;28;20052;-79
2022/11/22 03:33:31;;;;;;;3.38;3.10;;;;;;;10.33;54.28;98937.41;5071446;28;20508;-80
2022/11/22 03:35:57;;;;;;;3.03;2.83;;;;;;;9.92;54.22;98860.75;5071499;28;20509;-79
2022/11/22 03:38:23;;;;;;;3.50;3.20;;;;;;;10.80;54.17;99008.03;5071567;28;20029;-79
2022/11/22 03:40:48;;;;;;;3.30;3.00;;;;;;;10.11;54.38;98902.28;5071458;28;20558;-79
2022/11/22 03:43:13;;;;;;;4.20;3.42;;;;;;;10.74;54.44;99014.09;5071492;28;20028;-79
2022/11/22 03:45:44;;;;;;;3.30;3.10;;;;;;;10.43;54.48;98974.06;5071178;28;20532;-79
2022/11/22 03:48:10;;;;;;;3.35;3.05;;;;;;;9.91;54.14;98900.50;5071243;28;20100;-79
2022/11/22 03:50:35;;;;;;;4.40;3.70;;;;;;;10.25;54.56;98957.84;5071118;28;20108;-79
2022/11/22 03:53:00;;;;;;;3.42;3.13;;;;;;;10.31;54.64;98976.34;5071142;28;20025;-79
2022/11/22 03:55:26;;;;;;;3.83;3.53;;;;;;;10.28;54.15;98960.09;5053272;28;20481;-79
2022/11/22 03:57:51;;;;;;;3.53;3.22;;;;;;;10.05;54.53;98925.97;5071094;28;20028;-80
2022/11/22 04:00:17;;;;;;;3.70;3.40;;;;;;;10.34;54.37;98983.91;5071204;28;20481;-79
2022/11/22 04:02:42;;;;;;;4.05;3.70;;;;;;;10.31;53.91;98988.75;5071496;28;20024;-80
2022/11/22 04:05:08;;;;;;;4.10;3.55;;;;;;;10.33;54.30;99007.84;5071204;28;20486;-79
2022/11/22 04:07:33;;;;;;;3.80;3.50;;;;;;;10.26;54.49;98970.84;5071073;28;20063;-79
2022/11/22 04:09:58;;;;;;;4.18;3.78;;;;;;;10.47;54.63;99018.34;5053157;28;20025;-79
2022/11/22 04:12:24;;;;;;;4.65;4.20;;;;;;;10.58;55.14;99061.06;5053251;28;20505;-79
2022/11/22 04:15:07;;;;;;;4.32;3.95;;;;;;;9.64;54.68;98888.88;5071416;28;20107;-80
2022/11/22 04:17:44;;;;;;;5.90;4.53;;;;;;;10.56;54.97;99045.44;5075231;28;20035;-80
2022/11/22 04:23:04;;;;;;;;;;;;;;;10.25;56.04;99050.19;5076064;28;20035;-79
2022/11/22 04:25:31;;;;;;;8.10;6.55;;;;;;;10.37;55.93;99049.50;5075027;28;19935;-79
2022/11/22 04:27:57;;;;;;;7.93;6.72;;;;;;;10.03;55.59;99000.00;5057058;28;20024;-79
2022/11/22 04:33:09;;;;;;;4.90;4.47;;;;;;;9.83;55.62;98977.91;5075213;28;20043;-79
2022/11/22 04:35:34;;;;;;;6.03;4.72;;;;;;;9.76;55.62;98969.09;5074773;28;20416;-79
2022/11/22 04:38:00;;;;;;;5.65;5.13;;;;;;;9.90;55.81;98994.59;5074655;28;20035;-79
2022/11/22 04:40:25;;;;;;;6.63;6.03;;;;;;;10.17;56.46;99075.63;5074993;28;20033;-79
2022/11/22 04:45:34;;;;;;;6.15;5.55;;;;;;;9.71;56.54;99017.13;5074964;28;20086;-79
2022/11/22 04:47:59;;;;;;;6.32;5.35;;;;;;;10.01;56.74;99069.78;5079215;28;20480;-80
2022/11/22 04:53:11;;;;;;;7.63;5.97;;;;;;;9.99;56.81;99085.78;5085486;28;20047;-79
2022/11/22 04:55:36;;;;;;;9.38;6.13;;;;;;;10.08;57.01;99111.06;5056488;28;20021;-79
2022/11/22 04:58:02;;;;;;;8.27;6.50;;;;;;;9.46;57.00;99008.69;5074197;28;20064;-79
2022/11/22 05:00:29;;;;;;;7.47;6.70;;;;;;;9.72;56.95;99058.28;5074435;28;20020;-79
2022/11/22 05:02:55;;;;;;;8.38;7.07;;;;;;;10.08;57.33;99118.16;5074321;28;20090;-79
2022/11/22 05:05:20;;;;;;;10.07;8.55;;;;;;;10.06;57.41;99120.97;5074028;28;20024;-79
2022/11/22 05:07:45;;;;;;;12.68;10.80;;;;;;;9.65;57.62;99060.00;5055920;28;20050;-79
2022/11/22 05:10:11;;;;;;;11.65;9.60;;;;;;;9.29;57.13;99007.25;5072812;28;20036;-80
2022/11/22 05:12:36;;;;;;;13.85;10.75;;;;;;;9.75;57.16;99075.56;5072823;28;20016;-80
2022/11/22 05:15:02;;;;;;;13.82;12.02;;;;;;;10.05;57.19;99137.81;5054992;28;20020;-79
2022/11/22 05:17:28;;;;;;;14.80;12.50;;;;;;;9.78;57.39;99098.91;5072827;28;20032;-79
2022/11/22 05:19:53;;;;;;;13.10;11.68;;;;;;;9.84;57.35;99116.66;5072791;28;20485;-79
2022/11/22 05:23:52;;;;;;;12.23;10.98;;;;;;;9.85;57.23;99127.00;5072740;28;20533;-79
2022/11/22 05:25:04;;;;;;;12.35;10.82;;;;;;;9.00;57.40;98996.72;5072585;28;20035;-79
2022/11/22 05:27:29;;;;;;;14.23;11.75;;;;;;;9.79;57.52;99140.09;5072448;28;20412;-79
2022/11/22 05:29:55;;;;;;;14.35;12.80;;;;;;;9.29;57.51;99065.19;5072657;28;20024;-79
2022/11/22 05:32:20;;;;;;;12.10;10.70;;;;;;;9.88;57.58;99149.56;5054666;28;20024;-79
2022/11/22 05:34:45;;;;;;;13.30;11.05;;;;;;;9.62;57.59;99107.81;5072671;28;20181;-79
2022/11/22 05:37:11;;;;;;;14.77;12.48;;;;;;;9.94;57.42;99169.09;5054670;28;20024;-79
2022/11/22 05:39:36;;;;;;;17.13;13.45;;;;;;;9.33;57.39;99061.19;5072507;28;20115;-79
2022/11/22 05:42:04;;;;;;;14.60;12.75;;;;;;;9.79;57.40;99159.38;5072449;28;20048;-79
2022/11/22 05:44:30;;;;;;;17.95;14.75;;;;;;;9.88;57.53;99171.47;5072546;28;20021;-79
2022/11/22 05:46:55;;;;;;;17.10;13.98;;;;;;;9.95;57.56;99158.38;5054610;28;20511;-79
2022/11/22 05:49:21;;;;;;;17.75;12.93;;;;;;;9.49;57.71;99091.81;5072338;28;20028;-79
2022/11/22 05:51:46;;;;;;;15.63;12.23;;;;;;;9.61;57.22;99111.44;5072478;28;20035;-79
2022/11/22 05:54:12;;;;;;;18.17;12.57;;;;;;;9.38;57.33;99079.09;5072236;28;20103;-79
2022/11/22 05:56:37;;;;;;;17.65;13.95;;;;;;;9.20;57.14;99043.41;5072477;28;20029;-79
2022/11/22 05:59:03;;;;;;;15.63;11.63;;;;;;;9.45;57.42;99101.09;5072434;28;20477;-79
2022/11/22 06:01:28;;;;;;;15.25;9.88;;;;;;;9.74;56.94;99130.09;5072084;28;20044;-79
2022/11/22 06:03:54;;;;;;;14.50;9.52;;;;;;;9.68;57.00;99128.19;5054118;28;20101;-79
2022/11/22 06:06:20;;;;;;;15.68;9.95;;;;;;;9.37;56.82;99096.72;5071936;28;20452;-79
2022/11/22 06:08:46;;;;;;;13.07;9.45;;;;;;;9.95;56.57;99176.81;5041794;28;1153214;-80
2022/11/22 06:11:16;;;;;;;9.63;8.68;;;;;;;10.12;56.51;99195.91;5058809;28;20037;-79
2022/11/22 06:13:43;;;;;;;12.68;10.18;;;;;;;10.10;56.73;99201.38;5073063;28;20032;-80
2022/11/22 06:16:09;;;;;;;11.48;10.20;;;;;;;10.14;56.51;99207.09;5061249;28;20027;-79
2022/11/22 06:18:36;;;;;;;13.55;11.25;;;;;;;10.06;56.50;99179.00;5072839;28;20051;-79
2022/11/22 06:21:04;;;;;;;12.32;11.02;;;;;;;10.28;56.10;99182.53;5092958;28;20042;-79
2022/11/22 06:23:29;;;;;;;12.95;10.38;;;;;;;10.00;56.21;99142.81;5074858;28;20176;-80
2022/11/22 06:26:01;;;;;;;11.45;9.30;;;;;;;10.49;55.67;99197.63;5092835;28;20108;-79
2022/11/22 06:28:28;;;;;;;12.02;8.75;;;;;;;10.56;55.74;99195.88;5082018;28;20035;-80
2022/11/22 06:31:00;;;;;;;12.23;9.05;;;;;;;10.62;55.40;99213.63;5072550;28;20412;-80
2022/11/22 06:33:25;;;;;;;12.88;9.73;;;;;;;10.01;54.99;99106.69;5072565;28;20039;-80
2022/11/22 06:35:51;;;;;;;11.65;9.98;;;;;;;10.53;54.83;99190.16;5067620;28;20421;-79
2022/11/22 06:38:16;;;;;;;12.50;10.10;;;;;;;10.26;55.23;99144.16;5059773;28;20029;-80
2022/11/22 06:40:41;;;;;;;13.43;10.80;;;;;;;10.65;55.28;99196.59;5072748;28;20493;-80
2022/11/22 06:43:07;;;;;;;13.07;9.95;;;;;;;10.28;55.34;99145.59;5072633;28;20086;-79
2022/11/22 06:45:32;;;;;;;11.75;10.02;;;;;;;10.63;55.14;99223.19;5072111;28;20150;-79
2022/11/22 06:47:58;;;;;;;14.95;11.73;;;;;;;10.47;55.04;99197.81;5072639;28;20066;-80
2022/11/22 06:50:23;;;;;;;15.82;11.05;;;;;;;10.31;55.46;99162.88;5073624;28;20432;-80
2022/11/22 06:52:52;;;;;;;16.88;11.38;;;;;;;10.16;55.02;99149.69;5072431;28;20105;-79
2022/11/22 06:55:17;;;;;;;16.27;11.85;;;;;;;10.82;55.36;99258.72;5072213;28;20024;-80
2022/11/22 06:57:43;;;;;;;15.98;13.27;;;;;;;10.72;54.88;99231.81;5071938;28;20166;-80
2022/11/22 07:00:09;;;;;;;16.85;12.73;;;;;;;10.63;55.07;99231.09;5054496;28;20521;-81
2022/11/22 07:02:34;;;;;;;16.23;13.15;;;;;;;10.49;54.76;99201.09;5066911;28;20036;-80
2022/11/22 07:05:00;;;;;;;17.08;13.98;;;;;;;10.97;55.06;99272.72;5063754;28;20036;-78
2022/11/22 07:07:25;;;;;;;15.35;13.25;;;;;;;11.03;55.04;99257.94;5060865;28;20086;-79
2022/11/22 07:09:50;;;;;;;15.10;13.25;;;;;;;11.06;54.89;99245.16;5051377;28;20493;-80
2022/11/22 07:12:16;;;;;;;18.95;12.85;;;;;;;11.10;54.62;99253.53;5065984;28;20029;-80
2022/11/22 07:14:42;;;;;;;15.02;12.45;;;;;;;10.54;54.96;99163.59;5061699;28;20115;-80
2022/11/22 07:17:07;;;;;;;15.05;12.23;;;;;;;10.69;54.51;99166.97;5055725;28;20028;-79
2022/11/22 07:19:32;;;;;;;14.88;11.85;;;;;;;11.24;54.12;99251.88;5071075;28;20029;-80
2022/11/22 07:21:58;;;;;;;13.20;10.88;;;;;;;11.17;53.75;99225.38;5071278;28;20028;-80
2022/11/22 07:24:23;;;;;;;13.98;11.00;;;;;;;11.11;53.27;99194.41;5067747;28;20033;-79
2022/11/22 07:26:49;;;;;;;9.07;7.88;;;;;;;11.25;52.83;99212.03;5054792;28;20036;-79
2022/11/22 07:29:14;;;;;;;10.93;8.00;;;;;;;10.95;52.78;99152.41;5068886;28;20024;-80
2022/11/22 07:31:39;;;;;;;7.88;7.07;;;;;;;11.55;52.43;99248.88;5058146;28;20116;-78
2022/11/22 07:34:05;;;;;;;8.95;7.50;;;;;;;11.59;52.21;99250.13;5077435;28;20028;-79
2022/11/22 07:36:31;;;;;;;10.15;7.93;;;;;;;11.63;52.20;99246.09;5081352;28;20463;-79
2022/11/22 07:38:56;;;;;;;9.63;7.90;;;;;;;11.63;51.89;99251.38;5067594;28;20028;-79
2022/11/22 07:41:22;;;;;;;7.75;5.45;;;;;;;11.69;51.86;99250.59;5070266;28;20132;-80
2022/11/22 07:43:47;;;;;;;10.60;8.43;;;;;;;11.51;51.58;99213.25;5055463;28;20033;-79
2022/11/22 07:46:28;;;;;;;7.63;6.47;;;;;;;11.76;51.20;99254.94;5065891;28;20470;-79
2022/11/22 07:48:53;;;;;;;13.52;10.18;;;;;;;11.41;51.59;99205.66;5067330;28;20032;-79
2022/11/22 07:51:19;;;;;;;9.60;6.82;;;;;;;11.84;51.04;99282.28;5062180;28;20685;-79
2022/11/22 07:53:44;;;;;;;10.77;7.28;;;;;;;11.30;51.23;99192.97;5052390;28;20417;-79
2022/11/22 07:56:10;;;;;;;7.18;6.28;;;;;;;11.48;50.60;99211.00;5083518;28;20056;-80
2022/11/22 07:58:36;;;;;;;9.75;7.43;;;;;;;11.87;50.73;99269.50;5070275;28;20410;-79
2022/11/22 08:01:13;;;;;;;9.18;7.30;;;;;;;11.92;50.69;99261.00;5071583;28;20489;-80
2022/11/22 08:03:38;;;;;;;21.60;17.08;;;;;;;11.98;50.87;99261.03;5067948;28;20037;-80
2022/11/22 08:06:07;;;;;;;8.15;7.10;;;;;;;11.72;50.87;99216.66;5063067;28;20500;-79
2022/11/22 08:08:34;;;;;;;7.63;6.93;;;;;;;12.07;50.58;99254.59;5063295;28;20237;-79
2022/11/22 08:11:00;;;;;;;7.95;6.38;;;;;;;12.03;50.13;99257.81;5068414;28;20032;-80
2022/11/22 08:13:25;;;;;;;5.53;4.93;;;;;;;11.71;50.47;99195.69;5069473;28;20052;-79
2022/11/22 08:15:52;;;;;;;6.20;4.55;;;;;;;12.11;51.08;99255.00;5054597;28;20170;-79
2022/11/22 08:18:17;;;;;;;7.43;6.78;;;;;;;12.20;51.05;99247.72;5069743;28;20060;-79
2022/11/22 08:20:43;;;;;;;10.70;4.78;;;;;;;12.11;50.88;99241.78;5065459;28;20078;-79
2022/11/22 08:23:08;;;;;;;5.35;4.60;;;;;;;12.00;51.02;99231.75;5051438;28;20033;-78
2022/11/22 08:25:34;;;;;;;5.88;4.07;;;;;;;12.21;51.06;99257.31;5059323;28;20028;-79
2022/11/22 08:27:59;;;;;;;7.05;5.43;;;;;;;12.02;51.06;99225.25;5070876;28;20025;-79
2022/11/22 08:30:25;;;;;;;6.18;5.38;;;;;;;12.44;51.95;99265.78;5070702;28;20024;-79
2022/11/22 08:32:54;;;;;;;4.57;4.18;;;;;;;12.39;52.15;99265.53;5068236;28;20027;-80
2022/11/22 08:35:19;;;;;;;5.32;4.10;;;;;;;11.74;51.78;99147.69;5063375;28;20128;-80
2022/11/22 08:37:44;;;;;;;6.75;6.13;;;;;;;12.21;51.73;99217.59;5068760;28;20103;-79
2022/11/22 08:40:10;;;;;;;8.93;7.43;;;;;;;12.01;51.49;99168.06;5069683;28;20025;-79
2022/11/22 08:42:36;;;;;;;9.95;7.55;;;;;;;12.15;51.08;99184.81;5069619;28;20068;-78
2022/11/22 08:45:01;;;;;;;4.78;4.18;;;;;;;12.57;51.01;99238.53;5064288;28;20029;-78
2022/11/22 08:47:26;;;;;;;5.97;5.30;;;;;;;12.62;50.49;99231.63;5066151;28;20016;-80
2022/11/22 08:49:52;;;;;;;5.55;4.18;;;;;;;12.33;50.92;99165.72;5040730;28;20028;-79
2022/11/22 08:52:17;;;;;;;4.47;4.07;;;;;;;12.71;50.59;99243.72;5049919;28;20025;-78
2022/11/22 08:54:43;;;;;;;5.70;4.88;;;;;;;12.76;50.53;99232.50;5053625;28;20034;-79
2022/11/22 08:57:08;;;;;;;5.55;3.60;;;;;;;12.81;49.58;99235.38;5070917;28;20025;-78
2022/11/22 08:59:33;;;;;;;4.40;3.72;;;;;;;12.77;49.55;99218.25;5055424;28;20025;-78
2022/11/22 09:01:59;;;;;;;3.83;3.53;;;;;;;12.45;49.31;99152.75;5068473;28;20029;-79
2022/11/22 09:04:25;;;;;;;3.88;3.22;;;;;;;12.92;49.12;99218.91;5069998;28;20162;-77
2022/11/22 09:06:50;;;;;;;3.00;2.65;;;;;;;13.05;48.75;99210.97;5055382;28;20016;-80
2022/11/22 09:09:16;;;;;;;8.18;4.22;;;;;;;13.10;48.60;99204.25;5068675;28;20041;-79
2022/11/22 09:11:41;;;;;;;11.27;4.70;;;;;;;12.98;48.69;99170.38;5068446;28;20086;-80
2022/11/22 09:14:07;;;;;;;5.38;4.10;;;;;;;12.71;48.54;99103.31;5072334;28;20936;-80
2022/11/22 09:16:32;;;;;;;4.60;4.03;;;;;;;12.80;48.21;99127.78;5070520;28;20056;-79
2022/11/22 09:18:58;;;;;;;9.50;7.15;;;;;;;13.30;48.60;99150.22;5064194;28;20032;-79
2022/11/22 09:21:23;;;;;;;5.38;4.88;;;;;;;13.17;48.47;99113.13;5073646;28;20016;-79
2022/11/22 09:23:50;;;;;;;5.22;4.13;;;;;;;13.45;48.35;99159.84;5069395;28;20505;-78
2022/11/22 09:26:21;;;;;;;5.60;4.70;;;;;;;13.24;48.42;99129.84;5073438;28;20043;-79
2022/11/22 09:28:47;;;;;;;3.30;3.00;;;;;;;13.41;48.23;99124.97;5061719;28;20017;-79
2022/11/22 09:31:23;;;;;;;3.97;3.58;;;;;;;13.29;48.08;99095.56;5053835;28;20029;-78
2022/11/22 09:33:49;;;;;;;4.40;4.00;;;;;;;13.30;48.33;99081.28;5059309;28;20409;-79
2022/11/22 09:36:20;;;;;;;4.13;3.72;;;;;;;13.89;48.34;99145.88;5063252;28;21616;-78
2022/11/22 09:38:46;;;;;;;3.55;3.25;;;;;;;13.74;48.09;99102.84;5051998;28;20087;-78
2022/11/22 09:41:15;;;;;;;5.50;3.83;;;;;;;14.09;47.92;99140.47;5047893;28;20029;-81
2022/11/22 09:43:52;;;;;;;5.78;3.05;;;;;;;14.20;47.72;99138.00;5068028;28;20546;-79
2022/11/22 09:46:20;;;;;;;4.78;3.00;;;;;;;14.28;47.44;99135.13;5051599;28;20104;-79
2022/11/22 09:48:46;;;;;;;18.25;14.40;;;;;;;14.31;46.95;99132.03;5070365;28;20029;-79
2022/11/22 09:51:20;;;;;;;6.85;5.72;;;;;;;13.97;46.73;99073.97;5067977;28;20028;-78
2022/11/22 09:54:04;;;;;;;3.35;2.95;;;;;;;14.09;45.90;99061.66;5052637;28;20024;-77
2022/11/22 09:56:30;;;;;;;6.00;3.58;;;;;;;14.51;46.21;99112.56;5061132;28;20106;-80
2022/11/22 09:59:03;;;;;;;3.33;2.65;;;;;;;14.63;45.71;99118.81;5059893;28;20121;-77
2022/11/22 10:01:43;;;;;;;2.47;2.28;;;;;;;14.20;44.81;99038.97;5064123;28;20027;-77
2022/11/22 10:04:36;;;;;;;5.68;2.92;;;;;;;14.75;44.79;99133.03;5068283;28;20035;-79
2022/11/22 10:07:11;;;;;;;2.65;2.20;;;;;;;14.50;44.34;99085.16;5053760;28;20028;-78
2022/11/22 10:09:46;;;;;;;2.42;2.20;;;;;;;14.39;44.55;99055.78;5072811;28;20119;-78
2022/11/22 10:12:28;;;;;;;4.55;3.42;;;;;;;14.86;44.74;99120.88;5055717;28;20016;-79
2022/11/22 10:15:01;;;;;;;3.78;3.17;;;;;;;14.66;44.53;99081.19;5068300;28;20027;-80
2022/11/22 10:17:44;;;;;;;2.72;2.38;;;;;;;14.98;44.46;99126.34;5067867;28;20032;-80
2022/11/22 10:20:16;;;;;;;4.43;2.95;;;;;;;14.68;44.41;99078.31;5060481;28;20085;-79
2022/11/22 10:22:42;;;;;;;4.45;3.10;;;;;;;14.75;43.98;99074.56;5067556;28;20024;-79
2022/11/22 10:25:26;;;;;;;5.45;4.53;;;;;;;15.13;44.09;99117.03;5066640;28;20025;-79
2022/11/22 10:27:57;;;;;;;3.85;3.35;;;;;;;14.89;44.03;99073.47;5066334;28;20405;-79
2022/11/22 10:30:24;;;;;;;2.30;2.10;;;;;;;14.50;43.86;99002.81;5040485;28;20021;-79
2022/11/22 10:33:01;;;;;;;4.22;2.60;;;;;;;15.24;43.81;99108.31;5049588;28;20281;-78
2022/11/22 10:35:53;;;;;;;3.40;2.92;;;;;;;15.22;43.68;99098.94;5070189;28;20143;-79
2022/11/22 10:38:36;;;;;;;3.15;2.85;;;;;;;15.18;43.32;99108.38;5064352;28;20078;-79
2022/11/22 10:41:27;;;;;;;5.30;3.40;;;;;;;15.26;43.66;99094.81;5065573;28;20027;-79
2022/11/22 10:44:44;;;;;;;2.78;2.58;;;;;;;15.19;43.54;99081.56;5069750;28;20028;-79
2022/11/22 10:47:22;;;;;;;6.10;4.15;;;;;;;15.26;43.54;99079.66;5065453;28;20547;-80
2022/11/22 10:50:13;;;;;;;3.78;2.90;;;;;;;15.23;43.62;99069.47;5033636;28;20025;-77
2022/11/22 10:53:23;;;;;;;10.70;8.00;;;;;;;15.23;44.13;99072.13;5041598;28;20036;-79
2022/11/22 10:55:57;;;;;;;7.93;7.05;;;;;;;15.21;44.00;99076.84;5037270;28;20040;-79
2022/11/22 10:58:41;;;;;;;7.80;7.03;;;;;;;15.20;44.45;99077.88;5052223;28;20074;-79
2022/11/22 11:01:20;;;;;;;3.92;3.22;;;;;;;14.78;44.43;99009.53;5052063;28;20520;-79
2022/11/22 11:03:50;;;;;;;6.15;5.53;;;;;;;15.23;44.46;99080.09;5071803;28;20027;-79
2022/11/22 11:06:27;;;;;;;3.60;2.72;;;;;;;15.28;44.15;99084.78;5071927;28;20082;-79
2022/11/22 11:09:21;;;;;;;4.32;3.03;;;;;;;15.27;44.04;99064.53;5071519;28;20047;-79
2022/11/22 11:11:50;;;;;;;3.00;2.38;;;;;;;15.10;43.93;99027.06;5056897;28;20055;-79
2022/11/22 11:14:43;;;;;;;2.28;1.92;;;;;;;14.71;43.28;98972.41;5071588;28;20066;-80
2022/11/22 11:17:15;;;;;;;3.95;2.53;;;;;;;15.15;43.41;99031.72;5074628;28;20663;-79
2022/11/22 11:19:43;;;;;;;;;;;;;;;15.22;43.58;99046.56;5071696;28;20127;-79
2022/11/22 11:22:14;;;;;;;4.78;3.50;;;;;;;15.36;44.09;99049.91;5035349;28;19935;-79
2022/11/22 11:24:40;;;;;;;3.75;2.13;;;;;;;14.55;43.29;98903.88;5064216;28;20029;-79
2022/11/22 11:27:07;;;;;;;2.63;2.25;;;;;;;15.21;43.33;99001.56;5069742;28;20078;-79
2022/11/22 11:29:39;;;;;;;8.02;6.80;;;;;;;14.71;43.57;98921.91;5068945;28;20059;-79
2022/11/22 11:32:19;;;;;;;2.90;2.60;;;;;;;14.86;43.72;98946.31;5050028;28;20116;-79
2022/11/22 11:35:07;;;;;;;3.20;2.30;;;;;;;15.40;43.44;99040.44;5053194;28;20025;-80
2022/11/22 11:37:37;;;;;;;2.80;2.15;;;;;;;15.08;43.49;98988.41;5053330;28;20493;-80
2022/11/22 11:40:05;;;;;;;2.53;1.83;;;;;;;15.46;43.73;99026.25;5071038;28;20093;-79
2022/11/22 11:42:33;;;;;;;4.47;2.83;;;;;;;15.50;43.74;99010.66;5067661;28;20016;-79
2022/11/22 11:45:31;;;;;;;1.92;1.70;;;;;;;15.51;43.65;99020.28;5071012;28;20031;-79
2022/11/22 11:47:57;;;;;;;2.90;2.25;;;;;;;15.03;43.73;98962.50;5053157;28;20551;-79